Terminal Aerodrome Forecast
Issued by NWS Jacksonville, FL

Home | Current Version | Previous Version | Text Only | Print | Product List | Glossary On
Versions: 1 2 3 4 5 6 7 8 9 10 11 12 13 14 15
000
FTUS42 KJAX 302325
TAFJAX
TAF
KJAX 302325Z 0100/0124 27005KT P6SM FEW040 SCT250
     FM010400 33003KT P6SM FEW250
     FM011400 36006KT P6SM FEW060
     FM012000 04007KT P6SM SCT060=

USA.gov is the U.S. government's official web portal to all federal, state and local government web resources and services.